createdAt,value
2018-02-05T00:00:06.618Z,79.07
2018-02-05T00:02:34.181Z,79.28
2018-02-05T00:05:01.754Z,79.80
2018-02-05T00:07:29.333Z,80.10
2018-02-05T00:09:56.894Z,80.61
2018-02-05T00:12:24.479Z,80.90
2018-02-05T00:14:52.100Z,81.13
2018-02-05T00:17:19.718Z,81.61
2018-02-05T00:19:47.277Z,81.88
2018-02-05T00:22:14.876Z,82.20
2018-02-05T00:24:43.358Z,82.05
2018-02-05T00:27:10.958Z,81.63
2018-02-05T00:29:38.534Z,81.75
2018-02-05T00:32:06.094Z,81.38
2018-02-05T00:34:33.801Z,80.96
2018-02-05T00:37:01.362Z,80.77
2018-02-05T00:39:28.984Z,80.79
2018-02-05T00:41:56.623Z,80.33
2018-02-05T00:44:29.149Z,80.91
2018-02-05T00:46:56.780Z,80.89
2018-02-05T00:49:24.355Z,81.45
2018-02-05T00:51:51.992Z,81.47
2018-02-05T00:54:19.686Z,81.27
2018-02-05T00:56:47.255Z,81.64
2018-02-05T00:59:14.888Z,82.30
2018-02-05T01:01:42.523Z,82.45
2018-02-05T01:04:10.090Z,82.21
2018-02-05T01:06:37.672Z,82.09
2018-02-05T01:09:05.288Z,81.80
2018-02-05T01:11:32.873Z,81.76
2018-02-05T01:14:00.453Z,81.95
2018-02-05T01:16:28.123Z,81.96
2018-02-05T01:18:55.686Z,81.81
2018-02-05T01:21:23.302Z,81.38
2018-02-05T01:23:50.870Z,81.31
2018-02-05T01:26:18.437Z,81.79
2018-02-05T01:28:46.015Z,81.53
2018-02-05T01:31:13.641Z,81.21
2018-02-05T01:33:41.332Z,80.90
2018-02-05T01:36:08.913Z,80.36
2018-02-05T01:38:36.537Z,80.16
2018-02-05T01:41:04.112Z,80.09
2018-02-05T01:43:31.692Z,79.52
2018-02-05T01:45:59.328Z,80.03
2018-02-05T01:48:26.890Z,79.95
2018-02-05T01:50:54.659Z,79.57
2018-02-05T01:53:22.283Z,79.23
2018-02-05T01:55:49.912Z,79.33
2018-02-05T01:58:17.493Z,79.46
2018-02-05T02:00:45.118Z,79.60
2018-02-05T02:03:12.703Z,79.97
2018-02-05T02:05:40.266Z,80.16
2018-02-05T02:08:07.895Z,80.20
2018-02-05T02:10:35.461Z,79.95
2018-02-05T02:13:03.021Z,80.52
2018-02-05T02:15:30.602Z,80.75
2018-02-05T02:17:58.170Z,81.21
2018-02-05T02:20:25.769Z,81.51
2018-02-05T02:22:53.365Z,81.95
2018-02-05T02:25:21.034Z,82.42
2018-02-05T02:27:48.649Z,82.51
2018-02-05T02:30:16.218Z,82.55
2018-02-05T02:32:43.794Z,82.92
2018-02-05T02:35:11.364Z,83.31
2018-02-05T02:37:38.935Z,83.22
2018-02-05T02:40:06.522Z,83.04
2018-02-05T02:42:34.230Z,83.32
2018-02-05T02:45:01.839Z,83.20
2018-02-05T02:47:29.437Z,83.19
2018-02-05T02:49:56.990Z,83.42
2018-02-05T02:52:24.554Z,83.93
2018-02-05T02:54:52.143Z,83.92
2018-02-05T02:57:19.779Z,83.79
2018-02-05T02:59:47.381Z,83.86
2018-02-05T03:02:14.987Z,83.87
2018-02-05T03:04:42.565Z,84.01
2018-02-05T03:07:10.214Z,84.09
2018-02-05T03:09:37.768Z,84.21
2018-02-05T03:12:05.346Z,84.27
2018-02-05T03:14:32.917Z,84.27
2018-02-05T03:17:00.538Z,84.24
2018-02-05T03:19:28.167Z,84.34
2018-02-05T03:21:55.734Z,84.54
2018-02-05T03:24:23.372Z,84.76
2018-02-05T03:26:51.013Z,84.78
2018-02-05T03:29:18.596Z,84.71
2018-02-05T03:31:46.230Z,84.30
2018-02-05T03:34:13.845Z,83.84
2018-02-05T03:36:41.451Z,83.72
2018-02-05T03:39:09.075Z,83.25
2018-02-05T03:41:36.720Z,83.14
2018-02-05T03:44:04.347Z,83.07
2018-02-05T03:46:31.940Z,83.10
2018-02-05T03:48:59.518Z,83.07
2018-02-05T03:51:27.126Z,82.95
2018-02-05T03:53:54.687Z,82.50
2018-02-05T03:56:22.317Z,82.70
2018-02-05T03:58:49.894Z,82.36
2018-02-05T04:01:17.466Z,82.41
2018-02-05T04:03:45.106Z,82.29
2018-02-05T04:06:12.686Z,82.28
2018-02-05T04:08:40.301Z,82.07
2018-02-05T04:11:07.870Z,82.02
2018-02-05T04:13:35.550Z,81.85
2018-02-05T04:16:03.270Z,81.97
2018-02-05T04:18:30.908Z,81.91
2018-02-05T04:20:58.484Z,82.12
2018-02-05T04:23:26.050Z,82.09
2018-02-05T04:25:53.663Z,82.14
2018-02-05T04:28:21.206Z,81.90
2018-02-05T04:30:48.774Z,81.75
2018-02-05T04:33:16.349Z,81.77
2018-02-05T04:35:43.918Z,82.13
2018-02-05T04:38:11.501Z,82.31
2018-02-05T04:40:39.070Z,82.65
2018-02-05T04:43:06.689Z,82.45
2018-02-05T04:45:34.263Z,81.98
2018-02-05T04:48:01.851Z,81.86
2018-02-05T04:50:29.417Z,82.11
2018-02-05T04:52:57.051Z,82.11
2018-02-05T04:55:24.620Z,82.27
2018-02-05T04:57:52.182Z,82.33
2018-02-05T05:00:19.785Z,82.37
2018-02-05T05:02:47.350Z,82.28
2018-02-05T05:05:14.959Z,82.55
2018-02-05T05:07:42.531Z,82.67
2018-02-05T05:10:10.089Z,83.05
2018-02-05T05:12:37.663Z,83.25
2018-02-05T05:15:05.227Z,83.49
2018-02-05T05:17:32.903Z,83.91
2018-02-05T05:20:00.529Z,84.12
2018-02-05T05:22:28.077Z,84.33
2018-02-05T05:24:55.661Z,84.72
2018-02-05T05:27:23.740Z,84.97
2018-02-05T05:29:51.354Z,85.29
2018-02-05T05:32:18.993Z,85.49
2018-02-05T05:34:46.803Z,85.67
2018-02-05T05:37:14.388Z,85.75
2018-02-05T05:39:41.955Z,86.01
2018-02-05T05:42:09.594Z,86.19
2018-02-05T05:44:37.156Z,86.36
2018-02-05T05:47:04.741Z,86.40
2018-02-05T05:49:32.378Z,86.31
2018-02-05T05:52:00.057Z,86.37
2018-02-05T05:54:27.701Z,86.27
2018-02-05T05:56:55.275Z,86.28
2018-02-05T05:59:22.859Z,86.40
2018-02-05T06:01:50.430Z,86.45
2018-02-05T06:04:18.127Z,86.45
2018-02-05T06:06:45.706Z,86.13
2018-02-05T06:09:13.390Z,85.95
2018-02-05T06:11:41.009Z,84.84
2018-02-05T06:14:08.579Z,83.49
2018-02-05T06:16:36.136Z,83.28
2018-02-05T06:19:04.001Z,82.39
2018-02-05T06:21:31.639Z,78.14
2018-02-05T06:23:59.207Z,77.39
2018-02-05T06:26:26.778Z,77.54
2018-02-05T06:28:54.433Z,76.47
2018-02-05T06:31:22.059Z,75.72
2018-02-05T06:33:49.710Z,75.46
2018-02-05T06:36:17.286Z,73.69
2018-02-05T06:38:44.885Z,73.58
2018-02-05T06:41:12.522Z,74.42
2018-02-05T06:43:40.098Z,73.86
2018-02-05T06:46:07.681Z,71.85
2018-02-05T06:48:35.311Z,70.24
2018-02-05T06:51:14.775Z,70.77
2018-02-05T06:53:54.151Z,70.13
2018-02-05T06:56:24.894Z,69.98
2018-02-05T06:58:52.468Z,69.46
2018-02-05T07:01:20.039Z,68.40
2018-02-05T07:03:47.679Z,69.99
2018-02-05T07:06:15.251Z,68.22
2018-02-05T07:08:42.830Z,67.03
2018-02-05T07:11:10.399Z,66.54
2018-02-05T07:13:38.018Z,67.20
2018-02-05T07:16:05.585Z,65.70
2018-02-05T07:18:33.218Z,66.61
2018-02-05T07:21:00.855Z,65.84
2018-02-05T07:23:28.478Z,65.90
2018-02-05T07:25:56.090Z,66.30
2018-02-05T07:28:23.657Z,64.45
2018-02-05T07:30:51.233Z,64.84
2018-02-05T07:33:18.799Z,64.48
2018-02-05T07:35:46.922Z,63.20
2018-02-05T07:38:14.562Z,65.03
2018-02-05T07:40:42.130Z,64.06
2018-02-05T07:43:09.703Z,63.41
2018-02-05T07:45:37.373Z,63.45
2018-02-05T07:48:04.949Z,62.85
2018-02-05T07:50:32.547Z,63.77
2018-02-05T07:53:00.127Z,63.96
2018-02-05T07:55:27.745Z,62.47
2018-02-05T07:57:55.346Z,62.53
2018-02-05T08:00:22.913Z,63.18
2018-02-05T08:02:50.542Z,61.81
2018-02-05T08:05:18.201Z,61.51
2018-02-05T08:07:45.787Z,60.82
2018-02-05T08:10:13.418Z,61.59
2018-02-05T08:12:41.049Z,59.07
2018-02-05T08:15:08.622Z,61.72
2018-02-05T08:17:36.203Z,60.54
2018-02-05T08:20:03.835Z,60.27
2018-02-05T08:22:31.406Z,59.78
2018-02-05T08:24:59.003Z,59.40
2018-02-05T08:27:26.636Z,60.11
2018-02-05T08:29:54.254Z,58.76
2018-02-05T08:32:21.837Z,58.59
2018-02-05T08:34:49.471Z,60.20
2018-02-05T08:37:17.117Z,59.16
2018-02-05T08:39:44.694Z,57.93
2018-02-05T08:42:12.342Z,58.96
2018-02-05T08:44:39.912Z,58.55
2018-02-05T08:47:07.541Z,57.54
2018-02-05T08:49:35.118Z,58.28
2018-02-05T08:52:02.690Z,57.07
2018-02-05T08:54:30.265Z,56.95
2018-02-05T08:56:57.829Z,56.32
2018-02-05T08:59:25.474Z,56.94
2018-02-05T09:01:53.020Z,57.01
2018-02-05T09:04:20.683Z,56.04
2018-02-05T09:06:48.251Z,56.32
2018-02-05T09:09:15.818Z,56.15
2018-02-05T09:11:43.446Z,57.55
2018-02-05T09:14:11.073Z,56.47
2018-02-05T09:16:38.722Z,56.85
2018-02-05T09:19:06.358Z,56.72
2018-02-05T09:21:33.969Z,57.11
2018-02-05T09:24:01.550Z,57.92
2018-02-05T09:26:29.117Z,58.02
2018-02-05T09:28:56.772Z,58.26
2018-02-05T09:31:24.395Z,57.80
2018-02-05T09:33:51.988Z,58.47
2018-02-05T09:36:19.567Z,58.05
2018-02-05T09:38:47.194Z,56.78
2018-02-05T09:41:14.770Z,55.10
2018-02-05T09:43:42.341Z,53.74
2018-02-05T09:46:09.983Z,53.15
2018-02-05T09:48:37.563Z,50.83
2018-02-05T09:51:05.211Z,50.47
2018-02-05T09:53:32.830Z,51.56
2018-02-05T09:56:00.516Z,50.97
2018-02-05T09:58:28.114Z,50.79
2018-02-05T10:00:55.694Z,51.54
2018-02-05T10:03:23.357Z,52.09
2018-02-05T10:05:50.995Z,51.35
2018-02-05T10:08:18.608Z,51.43
2018-02-05T10:10:46.183Z,50.17
2018-02-05T10:13:13.891Z,51.75
2018-02-05T10:15:41.538Z,50.42
2018-02-05T10:18:09.208Z,50.64
2018-02-05T10:20:36.773Z,51.76
2018-02-05T10:23:04.348Z,50.85
2018-02-05T10:25:31.923Z,51.03
2018-02-05T10:27:59.564Z,50.99
2018-02-05T10:30:27.242Z,49.57
2018-02-05T10:32:54.871Z,49.68
2018-02-05T10:35:22.551Z,50.12
2018-02-05T10:37:50.193Z,50.06
2018-02-05T10:40:17.758Z,50.72
2018-02-05T10:42:45.357Z,52.77
2018-02-05T10:45:12.945Z,52.23
2018-02-05T10:47:40.532Z,50.75
2018-02-05T10:50:08.178Z,50.64
2018-02-05T10:52:35.746Z,51.00
2018-02-05T10:55:03.338Z,50.63
2018-02-05T10:57:30.930Z,49.00
2018-02-05T10:59:58.567Z,50.04
2018-02-05T11:02:26.162Z,49.40
2018-02-05T11:04:53.787Z,49.56
2018-02-05T11:07:21.368Z,49.16
2018-02-05T11:09:49.009Z,49.66
2018-02-05T11:12:16.598Z,46.94
2018-02-05T11:14:44.177Z,45.83
2018-02-05T11:17:11.899Z,46.35
2018-02-05T11:19:39.499Z,44.96
2018-02-05T11:22:07.084Z,43.34
2018-02-05T11:24:34.659Z,41.42
2018-02-05T11:27:02.295Z,41.54
2018-02-05T11:29:29.886Z,40.62
2018-02-05T11:31:57.516Z,40.94
2018-02-05T11:34:25.142Z,40.58
2018-02-05T11:36:52.782Z,41.20
2018-02-05T11:39:20.354Z,42.85
2018-02-05T11:41:47.939Z,41.91
2018-02-05T11:44:15.580Z,41.26
2018-02-05T11:46:43.185Z,40.36
2018-02-05T11:49:10.812Z,41.01
2018-02-05T11:51:38.497Z,40.95
2018-02-05T11:54:06.134Z,39.61
2018-02-05T11:56:33.697Z,39.74
2018-02-05T11:59:01.277Z,39.43
2018-02-05T12:01:28.847Z,40.59
2018-02-05T12:03:56.426Z,39.26
2018-02-05T12:06:24.074Z,41.27
2018-02-05T12:08:51.706Z,42.12
2018-02-05T12:11:19.330Z,43.65
2018-02-05T12:13:46.950Z,46.22
2018-02-05T12:16:14.549Z,48.33
2018-02-05T12:18:42.110Z,49.43
2018-02-05T12:21:09.741Z,49.68
2018-02-05T12:23:37.350Z,51.42
2018-02-05T12:26:04.970Z,50.63
2018-02-05T12:28:32.601Z,51.40
2018-02-05T12:31:00.151Z,52.48
2018-02-05T12:33:27.715Z,52.63
2018-02-05T12:35:55.291Z,52.69
2018-02-05T12:38:22.866Z,52.56
2018-02-05T12:40:50.444Z,53.59
2018-02-05T12:43:18.125Z,53.55
2018-02-05T12:45:45.716Z,53.34
2018-02-05T12:48:13.405Z,53.67
2018-02-05T12:50:40.978Z,53.09
2018-02-05T12:53:08.653Z,53.73
2018-02-05T12:55:36.302Z,53.61
2018-02-05T12:58:03.902Z,52.62
2018-02-05T13:00:33.352Z,53.09
2018-02-05T13:03:08.460Z,52.44
2018-02-05T13:05:36.124Z,52.86
2018-02-05T13:08:03.701Z,51.88
2018-02-05T13:10:31.339Z,53.13
2018-02-05T13:12:58.972Z,52.35
2018-02-05T13:15:26.609Z,52.90
2018-02-05T13:17:54.249Z,52.50
2018-02-05T13:20:21.802Z,52.88
2018-02-05T13:22:49.380Z,53.64
2018-02-05T13:25:16.958Z,53.83
2018-02-05T13:27:44.525Z,54.14
2018-02-05T13:30:12.130Z,54.28
2018-02-05T13:32:39.744Z,53.59
2018-02-05T13:35:07.314Z,53.88
2018-02-05T13:37:34.885Z,55.16
2018-02-05T13:40:02.454Z,54.64
2018-02-05T13:42:30.098Z,55.08
2018-02-05T13:44:57.670Z,54.93
2018-02-05T13:47:25.321Z,53.89
2018-02-05T13:49:52.942Z,54.68
2018-02-05T13:52:20.562Z,54.55
2018-02-05T13:54:48.148Z,54.87
2018-02-05T13:57:15.728Z,56.04
2018-02-05T13:59:43.309Z,56.11
2018-02-05T14:02:10.892Z,56.27
2018-02-05T14:04:38.525Z,56.10
2018-02-05T14:07:06.091Z,55.88
2018-02-05T14:09:33.653Z,55.88
2018-02-05T14:12:01.226Z,55.70
2018-02-05T14:14:28.793Z,56.59
2018-02-05T14:16:56.366Z,56.76
2018-02-05T14:19:24.050Z,57.13
2018-02-05T14:21:51.688Z,57.78
2018-02-05T14:24:19.254Z,58.09
2018-02-05T14:26:46.823Z,57.57
2018-02-05T14:29:14.458Z,59.32
2018-02-05T14:31:42.104Z,59.85
2018-02-05T14:34:09.678Z,60.31
2018-02-05T14:36:37.242Z,61.18
2018-02-05T14:39:05.007Z,62.40
2018-02-05T14:41:32.634Z,63.39
2018-02-05T14:44:00.211Z,62.93
2018-02-05T14:46:27.787Z,63.38
2018-02-05T14:48:55.353Z,64.23
2018-02-05T14:51:22.936Z,64.53
2018-02-05T14:53:50.503Z,64.95
2018-02-05T14:56:18.193Z,65.07
2018-02-05T14:58:45.763Z,65.21
2018-02-05T15:01:13.394Z,65.44
2018-02-05T15:03:40.970Z,65.07
2018-02-05T15:06:08.600Z,65.23
2018-02-05T15:08:36.253Z,64.78
2018-02-05T15:11:03.899Z,64.91
2018-02-05T15:13:31.548Z,65.11
2018-02-05T15:15:59.114Z,65.54
2018-02-05T15:18:26.739Z,65.96
2018-02-05T15:20:54.388Z,66.66
2018-02-05T15:23:21.958Z,66.38
2018-02-05T15:25:49.535Z,66.87
2018-02-05T15:28:17.103Z,66.99
2018-02-05T15:30:44.794Z,67.47
2018-02-05T15:33:12.434Z,68.00
2018-02-05T15:35:40.070Z,68.81
2018-02-05T15:38:07.711Z,69.38
2018-02-05T15:40:35.282Z,69.55
2018-02-05T15:43:02.861Z,70.14
2018-02-05T15:45:30.492Z,70.19
2018-02-05T15:47:58.107Z,70.53
2018-02-05T15:50:25.693Z,70.71
2018-02-05T15:52:53.265Z,71.08
2018-02-05T15:55:20.903Z,71.36
2018-02-05T15:57:48.534Z,71.63
2018-02-05T16:00:16.096Z,71.86
2018-02-05T16:02:43.993Z,71.91
2018-02-05T16:05:11.613Z,71.73
2018-02-05T16:07:39.183Z,72.37
2018-02-05T16:10:06.810Z,73.36
2018-02-05T16:12:34.466Z,73.41
2018-02-05T16:15:02.083Z,73.97
2018-02-05T16:17:29.731Z,74.25
2018-02-05T16:19:57.299Z,74.80
2018-02-05T16:22:24.924Z,74.46
2018-02-05T16:24:52.520Z,74.85
2018-02-05T16:27:20.171Z,75.44
2018-02-05T16:29:47.753Z,75.00
2018-02-05T16:32:15.431Z,74.99
2018-02-05T16:34:43.077Z,75.16
2018-02-05T16:37:10.654Z,75.71
2018-02-05T16:39:38.282Z,76.12
2018-02-05T16:42:05.875Z,76.33
2018-02-05T16:44:33.458Z,76.45
2018-02-05T16:47:01.104Z,76.52
2018-02-05T16:49:28.739Z,76.57
2018-02-05T16:51:56.354Z,76.78
2018-02-05T16:54:23.930Z,76.93
2018-02-05T16:56:51.563Z,77.11
2018-02-05T16:59:19.190Z,77.29
2018-02-05T17:01:46.826Z,77.46
2018-02-05T17:04:14.414Z,77.75
2018-02-05T17:06:41.993Z,78.28
2018-02-05T17:09:09.580Z,78.80
2018-02-05T17:11:37.220Z,79.39
2018-02-05T17:14:04.854Z,79.48
2018-02-05T17:16:32.544Z,79.33
2018-02-05T17:19:00.187Z,79.47
2018-02-05T17:21:27.779Z,79.54
2018-02-05T17:23:55.616Z,79.67
2018-02-05T17:26:23.204Z,79.71
2018-02-05T17:28:50.826Z,79.84
2018-02-05T17:31:18.407Z,80.00
2018-02-05T17:33:46.031Z,80.10
2018-02-05T17:36:13.609Z,80.20
2018-02-05T17:38:41.247Z,80.40
2018-02-05T17:41:08.830Z,80.47
2018-02-05T17:43:36.437Z,80.32
2018-02-05T17:46:04.081Z,80.07
2018-02-05T17:48:31.659Z,79.96
2018-02-05T17:50:59.312Z,79.78
2018-02-05T17:53:26.904Z,79.96
2018-02-05T17:55:54.535Z,80.03
2018-02-05T17:58:22.126Z,80.06
2018-02-05T18:00:49.774Z,79.93
2018-02-05T18:03:17.381Z,80.03
2018-02-05T18:05:45.542Z,80.25
2018-02-05T18:08:13.176Z,80.30
2018-02-05T18:10:40.747Z,80.63
2018-02-05T18:13:08.378Z,80.92
2018-02-05T18:15:36.013Z,80.95
2018-02-05T18:18:03.600Z,81.22
2018-02-05T18:20:31.194Z,81.44
2018-02-05T18:22:59.113Z,81.54
2018-02-05T18:25:26.730Z,81.76
2018-02-05T18:27:54.366Z,81.80
2018-02-05T18:30:22.047Z,81.92
2018-02-05T18:32:49.629Z,81.92
2018-02-05T18:35:17.311Z,81.81
2018-02-05T18:37:44.890Z,81.84
2018-02-05T18:40:12.472Z,81.78
2018-02-05T18:42:40.113Z,81.79
2018-02-05T18:45:07.750Z,81.79
2018-02-05T18:47:35.335Z,81.82
2018-02-05T18:50:03.030Z,81.75
2018-02-05T18:52:30.618Z,81.70
2018-02-05T18:54:58.214Z,81.88
2018-02-05T18:57:25.788Z,82.17
2018-02-05T18:59:53.424Z,82.11
2018-02-05T19:02:22.891Z,81.97
2018-02-05T19:04:50.533Z,81.79
2018-02-05T19:07:18.140Z,81.73
2018-02-05T19:09:45.774Z,81.70
2018-02-05T19:12:13.363Z,81.73
2018-02-05T19:14:40.923Z,81.81
2018-02-05T19:17:08.542Z,81.84
2018-02-05T19:19:36.105Z,81.95
2018-02-05T19:22:03.730Z,81.99
2018-02-05T19:24:31.331Z,82.18
2018-02-05T19:26:58.911Z,82.17
2018-02-05T19:29:26.551Z,82.29
2018-02-05T19:31:54.167Z,82.57
2018-02-05T19:34:21.823Z,82.89
2018-02-05T19:36:49.395Z,83.22
2018-02-05T19:39:16.947Z,83.22
2018-02-05T19:41:44.531Z,83.06
2018-02-05T19:44:12.169Z,83.01
2018-02-05T19:46:39.807Z,83.03
2018-02-05T19:49:07.397Z,83.16
2018-02-05T19:51:35.122Z,83.40
2018-02-05T19:54:02.720Z,83.58
2018-02-05T19:56:30.298Z,83.75
2018-02-05T19:58:57.884Z,83.96
2018-02-05T20:01:25.519Z,84.13
2018-02-05T20:03:53.102Z,84.26
2018-02-05T20:06:20.729Z,84.48
2018-02-05T20:08:48.442Z,84.58
2018-02-05T20:11:16.014Z,84.47
2018-02-05T20:13:43.649Z,84.11
2018-02-05T20:16:11.221Z,83.68
2018-02-05T20:18:38.790Z,83.31
2018-02-05T20:21:06.409Z,83.21
2018-02-05T20:23:34.018Z,82.95
2018-02-05T20:26:01.727Z,82.73
2018-02-05T20:28:29.401Z,82.79
2018-02-05T20:30:57.028Z,83.37
2018-02-05T20:33:24.695Z,83.58
2018-02-05T20:35:53.208Z,83.38
2018-02-05T20:38:20.927Z,83.43
2018-02-05T20:40:48.561Z,83.60
2018-02-05T20:43:16.360Z,83.86
2018-02-05T20:45:43.934Z,83.98
2018-02-05T20:48:11.571Z,84.23
2018-02-05T20:50:39.213Z,84.23
2018-02-05T20:53:06.796Z,84.53
2018-02-05T20:55:34.377Z,84.60
2018-02-05T20:58:01.937Z,84.52
2018-02-05T21:00:29.631Z,84.38
2018-02-05T21:02:57.269Z,84.46
2018-02-05T21:05:24.842Z,84.53
2018-02-05T21:07:52.433Z,84.40
2018-02-05T21:10:20.069Z,84.18
2018-02-05T21:12:47.653Z,83.99
2018-02-05T21:15:15.286Z,83.89
2018-02-05T21:17:42.898Z,84.05
2018-02-05T21:20:10.469Z,84.07
2018-02-05T21:22:38.043Z,83.99
2018-02-05T21:25:05.619Z,84.09
2018-02-05T21:27:33.247Z,84.33
2018-02-05T21:30:00.827Z,84.50
2018-02-05T21:32:28.455Z,84.54
2018-02-05T21:34:56.072Z,84.59
2018-02-05T21:37:23.703Z,84.46
2018-02-05T21:39:51.331Z,84.22
2018-02-05T21:42:18.953Z,84.05
2018-02-05T21:44:46.578Z,83.75
2018-02-05T21:47:14.232Z,83.44
2018-02-05T21:49:41.863Z,83.34
2018-02-05T21:52:09.483Z,83.13
2018-02-05T21:54:37.051Z,83.02
2018-02-05T21:57:05.428Z,82.67
2018-02-05T21:59:33.018Z,82.58
2018-02-05T22:02:00.655Z,82.23
2018-02-05T22:04:28.296Z,81.78
2018-02-05T22:06:55.932Z,81.67
2018-02-05T22:09:23.564Z,81.56
2018-02-05T22:11:51.125Z,81.43
2018-02-05T22:14:18.781Z,81.12
2018-02-05T22:16:46.426Z,80.93
2018-02-05T22:19:14.041Z,80.63
2018-02-05T22:21:41.679Z,80.65
2018-02-05T22:24:09.245Z,80.54
2018-02-05T22:26:36.933Z,80.31
2018-02-05T22:29:04.505Z,80.33
2018-02-05T22:31:32.078Z,80.08
2018-02-05T22:33:59.716Z,80.02
2018-02-05T22:36:27.305Z,79.63
2018-02-05T22:38:54.934Z,79.17
2018-02-05T22:41:22.507Z,78.92
2018-02-05T22:43:50.209Z,78.87
2018-02-05T22:46:17.774Z,78.62
2018-02-05T22:48:45.346Z,78.37
2018-02-05T22:51:12.922Z,78.04
2018-02-05T22:53:40.497Z,77.84
2018-02-05T22:56:08.134Z,77.78
2018-02-05T22:58:35.764Z,77.60
2018-02-05T23:01:03.443Z,77.45
2018-02-05T23:03:31.014Z,77.79
2018-02-05T23:05:58.577Z,77.83
2018-02-05T23:08:26.228Z,77.67
2018-02-05T23:10:53.858Z,77.42
2018-02-05T23:13:21.444Z,76.99
2018-02-05T23:15:49.028Z,76.82
2018-02-05T23:18:16.651Z,76.71
2018-02-05T23:20:44.224Z,76.52
2018-02-05T23:23:11.786Z,76.08
2018-02-05T23:25:39.370Z,75.96
2018-02-05T23:28:06.920Z,75.85
2018-02-05T23:30:34.555Z,75.48
2018-02-05T23:33:02.196Z,74.85
2018-02-05T23:35:29.766Z,73.95
2018-02-05T23:37:57.393Z,73.88
2018-02-05T23:40:24.966Z,73.47
2018-02-05T23:42:52.591Z,73.22
2018-02-05T23:45:20.162Z,72.80
2018-02-05T23:47:47.746Z,72.25
2018-02-05T23:50:15.319Z,71.86
2018-02-05T23:52:42.884Z,72.09
2018-02-05T23:55:10.502Z,72.38
2018-02-05T23:57:38.071Z,72.32
